Time;durP1;ratioP1;P1;durP2;ratioP2;P2;SDS_P1;SDS_P2;PMS_P1;PMS_P2;Temp;Humidity;BMP_temperature;BMP_pressure;BME280_temperature;BME280_humidity;BME280_pressure;Samples;Min_cycle;Max_cycle;Signal;HPM_P1;HPM_P2
2023/08/29 00:01:40;;;;;;;9.25;4.30;;;;;;;-143.21;40.67;70282.00;5038342;28;20198;-87
2023/08/29 00:04:07;;;;;;;6.88;3.85;;;;;;;-143.21;40.78;70289.91;5037109;28;20218;-87
2023/08/29 00:06:34;;;;;;;4.82;3.95;;;;;;;-143.21;40.72;70293.88;5033955;28;20202;-88
2023/08/29 00:09:01;;;;;;;5.00;3.83;;;;;;;-143.21;40.76;70299.84;5036494;28;20205;-87
2023/08/29 00:11:28;;;;;;;7.13;4.18;;;;;;;-143.21;41.08;70299.84;5037813;28;20296;-87
2023/08/29 00:13:56;;;;;;;5.65;3.88;;;;;;;-143.21;41.12;70297.84;5038591;28;20261;-86
2023/08/29 00:16:24;;;;;;;5.93;4.13;;;;;;;-143.21;41.17;70305.78;5031719;28;20222;-87
2023/08/29 00:18:51;;;;;;;5.32;4.18;;;;;;;-143.21;41.23;70307.75;5029173;28;20214;-87
2023/08/29 00:21:18;;;;;;;4.55;3.97;;;;;;;-143.21;41.38;70301.81;5040562;28;20268;-87
2023/08/29 00:23:47;;;;;;;9.55;4.32;;;;;;;-143.21;41.36;70317.66;5039471;28;20223;-87
2023/08/29 00:26:14;;;;;;;6.85;4.25;;;;;;;-143.21;41.51;70315.69;5035996;28;20198;-88
2023/08/29 00:28:41;;;;;;;6.43;3.97;;;;;;;-143.21;41.55;70317.66;5037124;28;20214;-87
2023/08/29 00:31:08;;;;;;;4.90;3.90;;;;;;;-143.21;41.55;70303.78;5037235;28;20237;-86
2023/08/29 00:33:36;;;;;;;7.30;4.32;;;;;;;-143.21;41.51;70311.72;5034366;28;20210;-87
2023/08/29 00:36:03;;;;;;;6.82;4.03;;;;;;;-143.21;41.75;70327.56;5041065;28;20225;-87
2023/08/29 00:38:30;;;;;;;7.60;4.65;;;;;;;-143.21;41.86;70341.44;5040889;28;20209;-87
2023/08/29 00:40:59;;;;;;;9.65;4.28;;;;;;;-143.21;41.96;70339.47;5041402;28;20217;-88
2023/08/29 00:43:26;;;;;;;6.80;4.22;;;;;;;-143.21;42.07;70343.44;5037752;28;20269;-87
2023/08/29 00:45:53;;;;;;;7.15;4.50;;;;;;;-143.21;42.20;70347.41;5036441;28;20209;-87
2023/08/29 00:48:20;;;;;;;6.45;3.97;;;;;;;-143.21;42.18;70351.38;5043153;28;20638;-87
2023/08/29 00:50:49;;;;;;;6.00;4.00;;;;;;;-143.21;42.26;70353.34;5033919;28;20218;-87
2023/08/29 00:53:16;;;;;;;5.00;3.97;;;;;;;-143.21;42.33;70355.31;5036769;28;20199;-87
2023/08/29 00:55:43;;;;;;;5.68;4.30;;;;;;;-143.21;42.55;70367.22;5038519;28;20210;-87
2023/08/29 00:58:10;;;;;;;5.47;3.90;;;;;;;-143.21;42.46;70365.25;5022728;28;20223;-88
2023/08/29 01:00:37;;;;;;;6.90;4.15;;;;;;;-143.21;42.54;70373.16;5022073;28;20209;-86
2023/08/29 01:03:05;;;;;;;6.22;4.00;;;;;;;-143.21;42.68;70365.25;5026243;28;20231;-88
2023/08/29 01:05:32;;;;;;;7.82;4.28;;;;;;;-143.21;42.45;70357.31;5032321;28;20225;-87
2023/08/29 01:08:02;;;;;;;10.63;4.38;;;;;;;-143.21;42.31;70351.38;5035138;28;20210;-89
2023/08/29 01:10:51;;;;;;;5.35;4.07;;;;;;;-143.21;42.61;70351.38;5039164;28;20214;-89
2023/08/29 01:13:23;;;;;;;5.88;3.88;;;;;;;-143.21;42.54;70363.25;5041553;28;20214;-90
2023/08/29 01:15:54;;;;;;;13.10;4.47;;;;;;;-143.21;42.68;70369.19;5041391;28;20201;-89
2023/08/29 01:18:23;;;;;;;6.90;4.25;;;;;;;-143.21;43.18;70377.13;5039901;28;20744;-88
2023/08/29 01:20:51;;;;;;;8.20;3.75;;;;;;;-143.21;43.18;70369.19;5037533;28;20285;-88
2023/08/29 01:23:25;;;;;;;6.32;4.15;;;;;;;-143.21;43.37;70367.22;5039041;28;21324;-89
2023/08/29 01:25:56;;;;;;;8.80;4.53;;;;;;;-143.21;43.38;70371.19;5034641;28;20581;-90
2023/08/29 01:28:25;;;;;;;5.10;3.90;;;;;;;-143.21;43.35;70369.19;5037297;28;20252;-90
2023/08/29 01:30:53;;;;;;;6.90;3.97;;;;;;;-143.21;43.49;70369.19;5041688;28;20201;-88
2023/08/29 01:33:20;;;;;;;9.32;4.38;;;;;;;-143.21;43.43;70373.16;5038207;28;20210;-89
2023/08/29 01:35:48;;;;;;;6.65;4.03;;;;;;;-143.21;43.56;70373.16;5033992;28;20222;-89
2023/08/29 01:38:17;;;;;;;7.05;4.50;;;;;;;-143.21;43.84;70385.06;5038544;28;20225;-87
2023/08/29 01:40:44;;;;;;;7.57;4.25;;;;;;;-143.21;43.73;70373.16;5039100;28;20630;-88
2023/08/29 01:43:11;;;;;;;11.23;4.28;;;;;;;-143.21;43.58;70365.25;5041412;28;20672;-89
2023/08/29 01:45:39;;;;;;;5.35;4.00;;;;;;;-143.21;43.54;70355.31;5035340;28;20202;-88
2023/08/29 01:48:07;;;;;;;7.20;3.70;;;;;;;-143.21;43.22;70355.31;5038739;28;20191;-88
2023/08/29 01:50:37;;;;;;;6.47;4.30;;;;;;;-143.21;43.58;70371.19;5037622;28;20240;-90
2023/08/29 01:53:05;;;;;;;7.07;4.22;;;;;;;-143.21;43.65;70375.16;5033100;28;20683;-89
2023/08/29 01:55:34;;;;;;;11.00;6.20;;;;;;;-143.21;44.11;70387.03;5033399;28;20203;-86
2023/08/29 01:58:03;;;;;;;13.27;8.73;;;;;;;-143.21;43.75;70391.00;5038411;28;20241;-86
2023/08/29 02:00:32;;;;;;;8.95;7.03;;;;;;;-143.21;44.14;70398.94;5034730;28;20218;-88
2023/08/29 02:03:01;;;;;;;12.65;5.63;;;;;;;-143.21;44.27;70404.88;5039230;28;20222;-88
2023/08/29 02:05:28;;;;;;;12.63;8.15;;;;;;;-143.21;44.46;70398.94;5032954;28;20662;-87
2023/08/29 02:07:55;;;;;;;11.77;6.13;;;;;;;-143.21;44.24;70398.94;5035993;28;20208;-88
2023/08/29 02:10:22;;;;;;;11.02;6.05;;;;;;;-143.21;44.22;70408.84;5033393;28;20213;-88
2023/08/29 02:12:48;;;;;;;8.10;6.10;;;;;;;-143.21;44.36;70412.81;5041286;28;20210;-89
2023/08/29 02:15:15;;;;;;;13.13;5.90;;;;;;;-143.21;44.66;70414.78;5037105;28;20209;-87
2023/08/29 02:17:42;;;;;;;11.70;7.40;;;;;;;-143.21;44.57;70416.78;5031035;28;20226;-86
2023/08/29 02:20:11;;;;;;;14.07;7.82;;;;;;;-143.21;44.56;70408.84;5040582;28;20242;-87
2023/08/29 02:22:38;;;;;;;18.17;10.20;;;;;;;-143.21;44.30;70408.84;5039848;28;20602;-87
2023/08/29 02:25:07;;;;;;;16.08;10.43;;;;;;;-143.21;44.38;70406.84;5044598;28;20653;-88
2023/08/29 02:27:34;;;;;;;23.65;11.82;;;;;;;-143.21;44.41;70418.75;5048316;28;20195;-87
2023/08/29 02:30:03;;;;;;;20.23;10.43;;;;;;;-143.21;44.55;70418.75;5048735;28;20206;-87
2023/08/29 02:32:30;;;;;;;13.95;8.02;;;;;;;-143.21;44.74;70410.81;5046709;28;20251;-89
2023/08/29 02:34:57;;;;;;;13.82;7.00;;;;;;;-143.21;44.82;70420.72;5048731;28;20273;-87
2023/08/29 02:37:25;;;;;;;10.50;6.22;;;;;;;-143.21;45.15;70422.72;5045804;28;20229;-87
2023/08/29 02:39:52;;;;;;;18.15;8.30;;;;;;;-143.21;44.79;70426.69;5048785;28;20593;-87
2023/08/29 02:42:19;;;;;;;23.05;12.57;;;;;;;-143.21;45.12;70432.63;5045728;28;20210;-87
2023/08/29 02:44:46;;;;;;;24.67;12.20;;;;;;;-143.21;45.09;70434.59;5037189;28;20206;-87
2023/08/29 02:47:13;;;;;;;23.98;11.80;;;;;;;-143.21;45.42;70436.59;5043400;28;20202;-88
2023/08/29 02:49:43;;;;;;;33.97;12.95;;;;;;;-143.21;45.44;70436.59;5048323;28;20201;-86
2023/08/29 02:52:09;;;;;;;38.58;14.38;;;;;;;-143.21;45.22;70436.59;5051395;28;20745;-88
2023/08/29 02:54:38;;;;;;;24.27;10.50;;;;;;;-143.21;45.31;70438.56;5044282;28;20676;-88
2023/08/29 02:57:05;;;;;;;23.70;10.05;;;;;;;-143.21;45.28;70444.53;5039216;28;20226;-88
2023/08/29 02:59:32;;;;;;;23.52;10.02;;;;;;;-143.21;45.19;70440.56;5039721;28;20206;-87
2023/08/29 03:02:00;;;;;;;19.50;8.57;;;;;;;-143.21;45.03;70430.66;5044391;28;20201;-88
2023/08/29 03:04:27;;;;;;;21.02;8.25;;;;;;;-143.21;44.87;70428.66;5045682;28;20202;-88
2023/08/29 03:06:54;;;;;;;19.08;8.43;;;;;;;-143.21;45.25;70444.53;5038473;28;20217;-89
2023/08/29 03:09:21;;;;;;;22.13;8.48;;;;;;;-143.21;45.28;70444.53;5048331;28;20623;-89
2023/08/29 03:11:49;;;;;;;17.75;7.72;;;;;;;-143.21;45.58;70458.41;5041809;28;20213;-88
2023/08/29 03:14:16;;;;;;;21.27;7.85;;;;;;;-143.21;45.74;70460.38;5036328;28;20663;-89
2023/08/29 03:16:43;;;;;;;22.17;7.90;;;;;;;-143.21;45.86;70460.38;5046873;28;20206;-89
2023/08/29 03:19:10;;;;;;;13.45;6.72;;;;;;;-143.21;45.79;70464.34;5044070;28;20222;-88
2023/08/29 03:21:37;;;;;;;19.25;8.82;;;;;;;-143.21;45.98;70460.38;5033870;28;20206;-88
2023/08/29 03:24:05;;;;;;;16.67;7.53;;;;;;;-143.21;45.82;70460.38;5028956;28;20199;-89
2023/08/29 03:26:32;;;;;;;11.52;5.63;;;;;;;-143.21;46.00;70460.38;5027110;28;20280;-89
2023/08/29 03:29:00;;;;;;;12.23;5.85;;;;;;;-143.21;45.98;70456.41;5028369;28;20229;-85
2023/08/29 03:31:27;;;;;;;9.68;5.53;;;;;;;-143.21;46.06;70458.41;5025730;28;20293;-82
2023/08/29 03:33:55;;;;;;;14.05;8.00;;;;;;;-143.21;45.86;70452.44;5028271;28;20213;-82
2023/08/29 03:36:22;;;;;;;6.85;5.28;;;;;;;-143.21;45.80;70442.53;5030689;28;20605;-87
2023/08/29 03:38:49;;;;;;;8.55;4.97;;;;;;;-143.21;45.64;70432.63;5027260;28;20246;-86
2023/08/29 03:41:16;;;;;;;6.75;4.68;;;;;;;-143.21;45.50;70428.66;5030339;28;20194;-88
2023/08/29 03:43:43;;;;;;;7.43;4.40;;;;;;;-143.21;45.56;70432.63;5028713;28;20199;-87
2023/08/29 03:46:11;;;;;;;6.78;4.82;;;;;;;-143.21;45.56;70438.56;5027397;28;20203;-87
2023/08/29 03:48:38;;;;;;;5.93;4.65;;;;;;;-143.21;45.61;70438.56;5025285;28;20202;-87
2023/08/29 03:51:06;;;;;;;7.95;4.82;;;;;;;-143.21;46.05;70444.53;5028627;28;20669;-87
2023/08/29 03:53:33;;;;;;;8.18;5.10;;;;;;;-143.21;45.90;70440.56;5038872;28;20245;-87
2023/08/29 03:56:02;;;;;;;7.22;5.05;;;;;;;-143.21;45.95;70446.50;5024449;28;20591;-88
2023/08/29 03:58:29;;;;;;;10.52;5.05;;;;;;;-143.21;46.07;70452.44;5026973;28;20964;-87
2023/08/29 04:00:57;;;;;;;12.25;5.05;;;;;;;-143.21;46.14;70456.41;5038134;28;20206;-88
2023/08/29 04:03:25;;;;;;;9.15;4.80;;;;;;;-143.21;46.25;70450.47;5039222;28;20203;-88
2023/08/29 04:05:52;;;;;;;11.02;4.90;;;;;;;-143.21;46.07;70444.53;5041194;28;20221;-89
2023/08/29 04:08:19;;;;;;;11.07;5.47;;;;;;;-143.21;45.88;70434.59;5043070;28;20203;-88
2023/08/29 04:10:46;;;;;;;5.63;4.30;;;;;;;-143.21;45.82;70432.63;5053973;28;20216;-88
2023/08/29 04:13:13;;;;;;;9.20;4.65;;;;;;;-143.21;45.96;70434.59;5053577;28;20202;-87
2023/08/29 04:15:40;;;;;;;8.05;4.80;;;;;;;-143.21;45.60;70428.66;5049695;28;20206;-87
2023/08/29 04:18:08;;;;;;;8.93;5.05;;;;;;;-143.21;45.43;70418.75;5044634;28;20222;-87
2023/08/29 04:20:37;;;;;;;9.13;5.13;;;;;;;-143.21;45.44;70416.78;5038427;28;20235;-87
2023/08/29 04:23:06;;;;;;;10.13;5.72;;;;;;;-143.21;46.13;70452.44;5051522;28;20268;-86
2023/08/29 04:25:35;;;;;;;10.48;6.00;;;;;;;-143.21;46.99;70476.22;5031818;28;20203;-85
2023/08/29 04:28:02;;;;;;;9.07;4.97;;;;;;;-143.21;46.68;70476.22;5038416;28;20202;-84
2023/08/29 04:30:29;;;;;;;11.60;5.30;;;;;;;-143.21;47.04;70486.16;5035363;28;20213;-86
2023/08/29 04:32:56;;;;;;;11.38;5.55;;;;;;;-143.21;47.18;70500.00;5039957;28;20297;-86
2023/08/29 04:35:23;;;;;;;13.40;6.22;;;;;;;-143.21;48.13;70515.88;5047427;28;20290;-86
2023/08/29 04:37:52;;;;;;;8.95;5.53;;;;;;;-143.21;48.16;70529.75;5041621;28;20270;-86
2023/08/29 04:40:21;;;;;;;13.40;5.95;;;;;;;-143.21;48.26;70539.66;5035530;28;20240;-86
2023/08/29 04:42:48;;;;;;;9.95;5.40;;;;;;;-143.21;48.24;70543.63;5034266;28;20206;-88
2023/08/29 04:45:15;;;;;;;10.15;5.55;;;;;;;-143.21;48.34;70543.63;5032014;28;20204;-88
2023/08/29 04:47:42;;;;;;;11.77;5.90;;;;;;;-143.21;48.70;70539.66;5042487;28;20195;-84
2023/08/29 04:50:09;;;;;;;7.15;5.28;;;;;;;-143.21;48.59;70531.72;5039064;28;20696;-85
2023/08/29 04:52:36;;;;;;;10.25;5.68;;;;;;;-143.21;48.47;70539.66;5034693;28;20575;-84
2023/08/29 04:55:05;;;;;;;7.93;5.30;;;;;;;-143.21;48.53;70531.72;5042570;28;20232;-86
2023/08/29 04:57:33;;;;;;;10.52;5.20;;;;;;;-143.21;48.03;70525.78;5037405;28;20202;-86
2023/08/29 05:00:01;;;;;;;12.07;4.70;;;;;;;-143.21;48.18;70507.94;5032077;28;20213;-86
2023/08/29 05:02:28;;;;;;;9.88;5.05;;;;;;;-143.21;48.11;70492.09;5037376;28;20198;-84
2023/08/29 05:04:55;;;;;;;11.77;4.70;;;;;;;-143.21;47.82;70486.16;5041761;28;20202;-84
2023/08/29 05:07:30;;;;;;;14.02;5.32;;;;;;;-143.21;46.87;70444.53;5032957;28;20685;-85
2023/08/29 05:09:57;;;;;;;8.35;4.85;;;;;;;-143.21;46.66;70422.72;5034700;28;20188;-84
2023/08/29 05:12:47;;;;;;;10.65;4.60;;;;;;;-143.21;46.04;70398.94;5036638;28;20212;-86
2023/08/29 05:15:16;;;;;;;6.47;4.82;;;;;;;-143.21;45.77;70394.97;5033374;28;20205;-87
2023/08/29 05:17:58;;;;;;;9.65;5.35;;;;;;;-143.21;45.82;70402.91;5036318;28;20230;-86
2023/08/29 05:20:28;;;;;;;9.25;5.22;;;;;;;-143.21;45.84;70392.97;5045723;28;20329;-88
2023/08/29 05:22:55;;;;;;;12.07;6.07;;;;;;;-143.21;46.27;70396.94;5040397;28;20666;-86
2023/08/29 05:25:25;;;;;;;18.20;6.15;;;;;;;-143.21;46.13;70408.84;5037784;28;20229;-86
2023/08/29 05:30:35;;;;;;;10.52;6.00;;;;;;;-143.21;47.55;70424.69;5032888;28;20206;-86
2023/08/29 05:33:02;;;;;;;15.77;6.65;;;;;;;-143.21;47.49;70420.72;5039386;28;20210;-84
2023/08/29 05:35:29;;;;;;;15.57;5.45;;;;;;;-143.21;47.42;70410.81;5047933;28;20205;-85
2023/08/29 05:37:56;;;;;;;14.93;5.63;;;;;;;-143.21;47.24;70412.81;5043901;28;20895;-85
2023/08/29 05:40:23;;;;;;;12.60;5.35;;;;;;;-143.21;46.60;70410.81;5039153;28;20688;-84
2023/08/29 05:42:50;;;;;;;9.93;5.10;;;;;;;-143.21;46.27;70404.88;5041094;28;20736;-85
2023/08/29 05:45:18;;;;;;;8.88;4.68;;;;;;;-143.21;45.19;70371.19;5043817;28;20194;-85
2023/08/29 05:47:45;;;;;;;10.02;4.85;;;;;;;-143.21;45.17;70357.31;5033726;28;20203;-84
2023/08/29 05:50:12;;;;;;;6.32;4.72;;;;;;;-143.21;45.06;70341.44;5033673;28;20194;-84
2023/08/29 05:52:39;;;;;;;10.48;5.05;;;;;;;-143.21;45.42;70339.47;5022764;28;20214;-85
2023/08/29 05:55:08;;;;;;;14.25;5.60;;;;;;;-143.21;45.35;70341.44;5030891;28;20619;-84
2023/08/29 05:57:35;;;;;;;8.38;4.95;;;;;;;-143.21;45.22;70351.38;5031814;28;20592;-85
2023/08/29 06:00:05;;;;;;;9.63;4.82;;;;;;;-143.21;45.01;70361.28;5027490;28;20207;-85
2023/08/29 06:02:33;;;;;;;8.30;4.65;;;;;;;-143.21;45.12;70361.28;5024252;28;21530;-86
2023/08/29 06:05:00;;;;;;;10.30;4.90;;;;;;;-143.21;45.08;70359.28;5032728;28;21053;-85
2023/08/29 06:07:30;;;;;;;9.98;5.03;;;;;;;-143.21;44.97;70359.28;5038315;28;20191;-85
2023/08/29 06:09:57;;;;;;;13.07;5.30;;;;;;;-143.21;45.14;70353.34;5040320;28;20213;-84
2023/08/29 06:12:29;;;;;;;10.02;5.28;;;;;;;-143.21;45.01;70355.31;5034211;28;20205;-83
2023/08/29 06:14:56;;;;;;;13.77;4.88;;;;;;;-143.21;44.56;70343.44;5038607;28;20249;-83
2023/08/29 06:17:26;;;;;;;7.70;5.00;;;;;;;-143.21;44.38;70331.53;5044030;28;20198;-84
2023/08/29 06:19:54;;;;;;;10.95;4.93;;;;;;;-143.21;43.70;70299.84;5037303;28;20257;-84
2023/08/29 06:22:21;;;;;;;6.03;4.20;;;;;;;-143.21;43.30;70282.00;5043923;28;20206;-84
2023/08/29 06:24:50;;;;;;;8.02;4.75;;;;;;;-143.21;43.54;70264.16;5042958;28;20589;-83
2023/08/29 06:27:20;;;;;;;7.95;4.78;;;;;;;-143.21;43.24;70262.19;5040562;28;20209;-83
2023/08/29 06:29:51;;;;;;;10.93;5.10;;;;;;;-143.21;43.25;70268.13;5044589;28;20198;-86
2023/08/29 06:32:20;;;;;;;10.00;4.50;;;;;;;-143.21;43.33;70270.09;5038928;28;20198;-85
2023/08/29 06:34:48;;;;;;;7.40;4.30;;;;;;;-143.21;43.15;70270.09;5048081;28;20281;-86
2023/08/29 06:37:21;;;;;;;8.32;4.35;;;;;;;-143.21;43.27;70258.22;5044689;28;20286;-85
2023/08/29 06:39:48;;;;;;;9.80;4.82;;;;;;;-143.21;43.23;70256.22;5045565;28;20821;-85
2023/08/29 06:42:15;;;;;;;9.30;4.25;;;;;;;-143.21;42.80;70254.25;5042753;28;20205;-85
2023/08/29 06:44:42;;;;;;;9.43;4.55;;;;;;;-143.21;42.68;70250.28;5042086;28;20206;-82
2023/08/29 06:47:15;;;;;;;9.23;5.10;;;;;;;-143.21;42.93;70240.38;5047207;28;20194;-88
2023/08/29 06:49:42;;;;;;;13.95;5.03;;;;;;;-143.21;43.05;70230.47;5050421;28;20206;-87
2023/08/29 06:52:09;;;;;;;7.72;4.85;;;;;;;-143.21;44.52;70202.72;5043590;28;20198;-85
2023/08/29 06:54:39;;;;;;;12.20;5.85;;;;;;;-143.21;42.88;70178.94;5041412;28;20673;-81
2023/08/29 06:57:06;;;;;;;8.13;5.15;;;;;;;-143.21;42.21;70182.91;5046019;28;20281;-81
2023/08/29 06:59:32;;;;;;;12.32;5.28;;;;;;;-143.21;42.11;70174.97;5048708;28;20226;-81
2023/08/29 07:02:13;;;;;;;13.27;5.22;;;;;;;-143.21;42.07;70163.06;5043326;28;20568;-81
2023/08/29 07:04:40;;;;;;;10.38;4.85;;;;;;;-143.21;41.06;70167.03;5044477;28;20198;-83
2023/08/29 07:07:07;;;;;;;9.77;5.47;;;;;;;-143.21;41.10;70182.91;5052559;28;20206;-81
2023/08/29 07:09:34;;;;;;;13.55;5.57;;;;;;;-143.21;42.34;70200.72;5047198;28;20206;-81
2023/08/29 07:12:25;;;;;;;12.60;6.00;;;;;;;-143.21;42.69;70196.78;5045900;28;20206;-81
2023/08/29 07:14:52;;;;;;;9.80;5.60;;;;;;;-143.21;42.51;70190.81;5048541;28;20719;-83
2023/08/29 07:17:19;;;;;;;11.75;5.72;;;;;;;-143.21;42.41;70186.84;5042203;28;20689;-81
2023/08/29 07:19:46;;;;;;;10.05;5.57;;;;;;;-143.21;41.66;70188.84;5041970;28;20273;-82
2023/08/29 07:22:16;;;;;;;11.48;5.22;;;;;;;-143.21;42.02;70192.81;5034640;28;20198;-81
2023/08/29 07:24:43;;;;;;;9.43;5.40;;;;;;;-143.21;42.03;70186.84;5034562;28;20206;-81
2023/08/29 07:27:13;;;;;;;7.78;5.00;;;;;;;-143.21;42.04;70184.88;5036159;28;20210;-82
2023/08/29 07:29:42;;;;;;;12.43;5.55;;;;;;;-143.21;42.10;70188.84;5035831;28;20201;-82
2023/08/29 07:32:09;;;;;;;12.35;5.80;;;;;;;-143.21;42.16;70176.94;5028180;28;20257;-81
2023/08/29 07:34:39;;;;;;;14.05;6.13;;;;;;;-143.21;42.04;70171.00;5030046;28;20214;-81
2023/08/29 07:37:07;;;;;;;12.80;5.45;;;;;;;-143.21;41.41;70165.06;5034603;28;20205;-81
2023/08/29 07:39:34;;;;;;;12.63;5.53;;;;;;;-143.21;41.74;70149.19;5033669;28;20219;-82
2023/08/29 07:42:01;;;;;;;11.95;5.32;;;;;;;-143.21;41.18;70131.38;5036747;28;20202;-80
2023/08/29 07:44:29;;;;;;;7.05;5.10;;;;;;;-143.21;40.20;70127.41;5029776;28;20222;-87
2023/08/29 07:47:00;;;;;;;10.27;5.03;;;;;;;-143.21;40.83;70135.31;5038115;28;20692;-87
2023/08/29 07:49:27;;;;;;;8.10;5.13;;;;;;;-143.21;40.67;70145.25;5035532;28;20195;-86
2023/08/29 07:51:57;;;;;;;8.93;5.28;;;;;;;-143.21;40.94;70135.31;5032739;28;20703;-88
2023/08/29 07:54:24;;;;;;;7.65;5.70;;;;;;;-143.21;40.70;70137.31;5027770;28;20293;-86
2023/08/29 07:56:51;;;;;;;6.50;4.57;;;;;;;-143.21;41.34;70119.47;5028557;28;20211;-87
2023/08/29 07:59:22;;;;;;;15.20;5.70;;;;;;;-143.21;41.27;70105.59;5032142;28;20598;-84
2023/08/29 08:01:49;;;;;;;18.33;5.70;;;;;;;-143.21;40.88;70095.69;5034346;28;20210;-88
2023/08/29 08:04:22;;;;;;;9.05;5.22;;;;;;;-143.21;40.48;70087.75;5026587;28;20285;-83
2023/08/29 08:06:49;;;;;;;7.35;4.88;;;;;;;-143.21;40.33;70071.91;5029052;28;20209;-85
2023/08/29 08:09:18;;;;;;;7.70;5.10;;;;;;;-143.21;40.33;70067.94;5033136;28;20289;-86
2023/08/29 08:11:48;;;;;;;9.27;5.82;;;;;;;-143.21;40.15;70052.09;5027315;28;20210;-84
2023/08/29 08:14:19;;;;;;;9.68;5.10;;;;;;;-143.21;39.95;70032.28;5020292;28;20997;-85
2023/08/29 08:16:46;;;;;;;10.70;5.88;;;;;;;-143.21;39.66;70014.44;5025885;28;20207;-86
2023/08/29 08:19:24;;;;;;;8.88;5.50;;;;;;;-143.21;39.44;70006.50;5035045;28;20226;-86
2023/08/29 08:21:54;;;;;;;12.85;5.85;;;;;;;-143.21;39.55;70016.41;5034999;28;20218;-84
2023/08/29 08:24:21;;;;;;;10.73;5.97;;;;;;;-143.21;40.31;70026.31;5029674;28;20214;-84
2023/08/29 08:26:56;;;;;;;7.63;5.18;;;;;;;-143.21;40.00;70018.41;5039315;28;20233;-86
2023/08/29 08:29:34;;;;;;;8.80;5.53;;;;;;;-143.21;39.86;70018.41;5034686;28;20201;-86
2023/08/29 08:32:01;;;;;;;8.18;5.82;;;;;;;-143.21;39.91;70024.34;5042542;28;20217;-85
2023/08/29 08:34:31;;;;;;;11.55;5.82;;;;;;;-143.21;39.75;70000.56;5034585;28;20210;-82
2023/08/29 08:37:04;;;;;;;8.35;6.18;;;;;;;-143.21;39.68;69980.75;5036166;28;20298;-87
2023/08/29 08:39:37;;;;;;;8.10;5.57;;;;;;;-143.21;39.64;69956.97;5034647;28;20254;-84
2023/08/29 08:42:05;;;;;;;14.18;6.25;;;;;;;-143.21;39.20;69933.19;5030640;28;20235;-85
2023/08/29 08:44:32;;;;;;;7.72;5.68;;;;;;;-143.21;38.79;69913.38;5040609;28;20210;-87
2023/08/29 08:47:00;;;;;;;12.05;5.47;;;;;;;-143.21;37.94;69893.53;5036876;28;20219;-87
2023/08/29 08:49:30;;;;;;;11.23;6.65;;;;;;;-143.21;37.98;69883.63;5038443;28;20269;-87
2023/08/29 08:51:59;;;;;;;10.35;5.82;;;;;;;-143.21;37.74;69861.84;5044136;28;20289;-87
2023/08/29 08:54:29;;;;;;;9.85;5.30;;;;;;;-143.21;37.50;69840.03;5032518;28;20199;-88
2023/08/29 08:56:59;;;;;;;10.20;6.15;;;;;;;-143.21;37.10;69804.38;5035771;28;20282;-87
2023/08/29 08:59:29;;;;;;;8.43;5.45;;;;;;;-143.21;36.50;69798.44;5038379;28;20724;-86
2023/08/29 09:02:03;;;;;;;10.48;5.20;;;;;;;-143.21;36.51;69780.59;5032543;28;20212;-87
2023/08/29 09:04:38;;;;;;;10.05;5.57;;;;;;;-143.21;36.18;69772.66;5039298;28;20210;-88
2023/08/29 09:07:06;;;;;;;8.43;5.38;;;;;;;-143.21;36.18;69768.69;5031536;28;20937;-87
2023/08/29 09:09:37;;;;;;;8.07;5.07;;;;;;;-143.21;35.74;69784.56;5034201;28;20665;-86
2023/08/29 09:12:05;;;;;;;7.63;5.25;;;;;;;-143.21;35.74;69780.59;5035642;28;20198;-85
2023/08/29 09:14:32;;;;;;;12.10;5.20;;;;;;;-143.21;36.11;69778.59;5036330;28;20194;-86
2023/08/29 09:17:00;;;;;;;9.07;5.53;;;;;;;-143.21;35.91;69788.53;5032217;28;20201;-86
2023/08/29 09:19:30;;;;;;;9.18;5.20;;;;;;;-143.21;36.51;69772.66;5036093;28;20692;-87
2023/08/29 09:21:58;;;;;;;9.45;5.65;;;;;;;-143.21;36.08;69766.72;5055777;28;20236;-85
2023/08/29 09:24:33;;;;;;;8.40;5.50;;;;;;;-143.21;35.83;69766.72;5061267;28;20202;-87
2023/08/29 09:27:00;;;;;;;6.45;5.82;;;;;;;-143.21;36.19;69752.84;5055139;28;20229;-86
2023/08/29 09:29:30;;;;;;;11.57;5.55;;;;;;;-143.21;36.29;69746.91;5053838;28;20607;-86
2023/08/29 09:31:59;;;;;;;9.15;5.55;;;;;;;-143.21;36.05;69754.81;5055615;28;20206;-88
2023/08/29 09:34:27;;;;;;;10.70;5.32;;;;;;;-143.21;36.19;69744.91;5054929;28;20206;-86
2023/08/29 09:36:54;;;;;;;10.80;5.30;;;;;;;-143.21;36.17;69746.91;5061882;28;20194;-85
2023/08/29 09:39:22;;;;;;;8.73;5.45;;;;;;;-143.21;35.90;69756.81;5058790;28;20321;-86
2023/08/29 09:42:05;;;;;;;9.32;6.60;;;;;;;-143.21;36.28;69758.78;5068070;28;20568;-84
2023/08/29 09:44:36;;;;;;;8.10;5.82;;;;;;;-143.21;35.88;69756.81;5050398;28;20197;-84
2023/08/29 09:47:04;;;;;;;8.55;5.78;;;;;;;-143.21;36.12;69758.78;5063097;28;20193;-84
2023/08/29 09:49:33;;;;;;;10.20;5.43;;;;;;;-143.21;36.18;69754.81;5059059;28;20259;-88
2023/08/29 09:52:02;;;;;;;8.25;5.10;;;;;;;-143.21;35.96;69766.72;5051383;28;20252;-87
2023/08/29 09:54:32;;;;;;;7.72;5.47;;;;;;;-143.21;36.55;69772.66;5060071;28;20292;-87
2023/08/29 09:57:06;;;;;;;10.10;5.50;;;;;;;-143.21;36.34;69794.47;5072273;28;20660;-87
2023/08/29 09:59:39;;;;;;;7.38;5.40;;;;;;;-143.21;37.05;69808.34;5063670;28;20217;-87
2023/08/29 10:02:10;;;;;;;11.10;5.95;;;;;;;-143.21;36.88;69808.34;5070067;28;20221;-90
2023/08/29 10:04:41;;;;;;;12.23;7.10;;;;;;;-143.21;36.87;69802.38;5073037;28;20197;-88
2023/08/29 10:07:10;;;;;;;11.73;5.95;;;;;;;-143.21;36.56;69796.44;5072468;28;20204;-89
2023/08/29 10:09:38;;;;;;;11.38;5.80;;;;;;;-143.21;36.70;69786.53;5072665;28;20205;-89
2023/08/29 10:12:09;;;;;;;6.65;5.35;;;;;;;-143.21;36.13;69762.75;5054605;28;20206;-84
2023/08/29 10:14:41;;;;;;;12.18;5.38;;;;;;;-143.21;36.37;69752.84;5050505;28;20201;-89
2023/08/29 10:17:09;;;;;;;10.15;5.45;;;;;;;-143.21;36.14;69731.06;5052505;28;20281;-90
2023/08/29 10:19:39;;;;;;;7.03;5.28;;;;;;;-143.21;35.89;69719.16;5052043;28;20233;-89
2023/08/29 10:22:08;;;;;;;10.15;5.65;;;;;;;-143.21;35.42;69703.31;5052174;28;20688;-88
2023/08/29 10:24:36;;;;;;;8.23;5.95;;;;;;;-143.21;35.61;69699.34;5068494;28;20209;-89
2023/08/29 10:27:08;;;;;;;7.68;5.50;;;;;;;-143.21;35.60;69683.50;5072463;28;20205;-91
2023/08/29 10:29:35;;;;;;;12.40;5.45;;;;;;;-143.21;35.24;69687.44;5041575;28;20620;-90
2023/08/29 10:32:04;;;;;;;8.02;5.05;;;;;;;-143.21;35.85;69687.44;5065863;28;20267;-90
2023/08/29 10:34:31;;;;;;;12.23;5.90;;;;;;;-143.21;35.56;69691.41;5055467;28;20214;-90
2023/08/29 10:37:06;;;;;;;10.32;5.82;;;;;;;-143.21;36.12;69689.44;5051420;28;20739;-84
2023/08/29 10:39:33;;;;;;;7.78;6.07;;;;;;;-143.21;35.53;69703.31;5051887;28;20221;-90
2023/08/29 10:42:00;;;;;;;11.93;5.85;;;;;;;-143.21;35.98;69711.22;5064140;28;20206;-88
2023/08/29 10:44:41;;;;;;;7.88;5.72;;;;;;;-143.21;36.37;69703.31;5071943;28;20205;-89
2023/08/29 10:47:19;;;;;;;8.23;5.63;;;;;;;-143.21;36.44;69691.41;5063663;28;20245;-87
2023/08/29 10:49:47;;;;;;;9.20;5.22;;;;;;;-143.21;36.28;69695.38;5061609;28;20573;-88
2023/08/29 10:52:18;;;;;;;7.30;5.25;;;;;;;-143.21;36.29;69699.34;5051650;28;20208;-89
2023/08/29 10:54:48;;;;;;;8.43;6.20;;;;;;;-143.21;36.61;69701.31;5051645;28;20225;-85
2023/08/29 10:57:27;;;;;;;13.20;6.05;;;;;;;-143.21;36.37;69685.47;5064237;28;20714;-86
2023/08/29 10:59:57;;;;;;;10.27;5.68;;;;;;;-143.21;36.25;69687.44;5055396;28;20210;-85
2023/08/29 11:02:30;;;;;;;7.55;5.72;;;;;;;-143.21;36.75;69699.34;5062264;28;20204;-86
2023/08/29 11:05:21;;;;;;;11.23;6.43;;;;;;;-143.21;36.48;69707.28;5063807;28;20188;-88
2023/08/29 11:08:04;;;;;;;8.73;5.88;;;;;;;-143.21;36.52;69701.31;5064844;28;20214;-87
2023/08/29 11:13:24;;;;;;;7.20;5.70;;;;;;;-143.21;36.94;69705.28;5057182;28;20197;-86
2023/08/29 11:16:23;;;;;;;8.90;5.70;;;;;;;-143.21;37.18;69697.38;5053060;28;20221;-88
2023/08/29 11:19:11;;;;;;;12.60;5.50;;;;;;;-143.21;37.06;69711.22;5033958;28;20194;-89
2023/08/29 11:21:40;;;;;;;10.00;5.70;;;;;;;-143.21;36.84;69715.19;5045889;28;20215;-85
2023/08/29 11:24:09;;;;;;;8.95;5.60;;;;;;;-143.21;37.27;69715.19;5053123;28;20260;-86
2023/08/29 11:26:40;;;;;;;8.27;5.07;;;;;;;-143.21;37.03;69699.34;5051955;28;20202;-86